Time;durP1;ratioP1;P1;durP2;ratioP2;P2;SDS_P1;SDS_P2;PMS_P1;PMS_P2;Temp;Humidity;BMP_temperature;BMP_pressure;BME280_temperature;BME280_humidity;BME280_pressure;Samples;Min_cycle;Max_cycle;Signal;HPM_P1;HPM_P2
2021/10/13 00:01:45;;;;;;;30.68;19.60;;;;;;;9.33;64.59;98948.77;1750816;80;21498;-40
2021/10/13 00:04:11;;;;;;;30.20;19.50;;;;;;;9.27;64.55;98935.33;1747977;80;21076;-41
2021/10/13 00:06:39;;;;;;;29.92;20.27;;;;;;;9.32;64.61;98939.88;1748066;80;20964;-40
2021/10/13 00:09:06;;;;;;;28.67;19.45;;;;;;;9.32;64.56;98934.47;1751848;80;21032;-40
2021/10/13 00:11:33;;;;;;;28.38;20.75;;;;;;;9.30;64.62;98933.25;1751834;81;21550;-43
2021/10/13 00:14:01;;;;;;;29.12;18.62;;;;;;;9.25;64.66;98932.20;1734209;81;21102;-40
2021/10/13 00:16:32;;;;;;;28.80;17.70;;;;;;;9.25;64.70;98931.63;1750772;80;20996;-40
2021/10/13 00:18:59;;;;;;;27.55;18.42;;;;;;;9.30;64.66;98929.19;1751162;80;20949;-40
2021/10/13 00:21:26;;;;;;;33.15;19.50;;;;;;;9.32;64.64;98924.21;1743118;81;21554;-40
2021/10/13 00:23:52;;;;;;;27.15;18.87;;;;;;;9.31;64.72;98924.78;1746232;80;21565;-41
2021/10/13 00:26:19;;;;;;;25.80;19.27;;;;;;;9.31;64.64;98917.23;1750736;80;21157;-40
2021/10/13 00:28:46;;;;;;;28.32;19.20;;;;;;;9.28;64.68;98914.69;1750948;80;20960;-41
2021/10/13 00:31:12;;;;;;;28.77;20.40;;;;;;;9.25;64.80;98911.34;1749936;80;20968;-40
2021/10/13 00:33:39;;;;;;;26.95;19.07;;;;;;;9.22;64.91;98913.99;1737176;80;21487;-41
2021/10/13 00:36:06;;;;;;;27.95;18.70;;;;;;;9.14;64.96;98911.19;1752413;80;21008;-41
2021/10/13 00:38:33;;;;;;;28.45;18.23;;;;;;;9.14;65.01;98916.59;1751445;80;21967;-40
2021/10/13 00:41:00;;;;;;;27.82;18.23;;;;;;;9.19;65.12;98920.14;1746126;80;20965;-41
2021/10/13 00:43:26;;;;;;;26.25;18.98;;;;;;;9.22;65.16;98920.75;1741406;81;21096;-40
2021/10/13 00:45:55;;;;;;;28.23;19.02;;;;;;;9.13;65.27;98921.78;1743163;80;21079;-41
2021/10/13 00:48:21;;;;;;;31.00;19.60;;;;;;;9.09;65.44;98925.57;1745051;80;21041;-41
2021/10/13 00:50:48;;;;;;;29.57;19.75;;;;;;;9.04;65.56;98918.54;1751923;80;21131;-40
2021/10/13 00:53:16;;;;;;;32.78;20.08;;;;;;;9.03;65.67;98922.94;1745053;80;21004;-41
2021/10/13 00:55:43;;;;;;;31.17;18.85;;;;;;;9.02;65.71;98924.86;1735446;80;20989;-41
2021/10/13 00:58:09;;;;;;;27.07;18.02;;;;;;;9.05;65.74;98927.44;1751586;80;21589;-41
2021/10/13 01:00:41;;;;;;;26.82;19.25;;;;;;;9.09;65.66;98931.77;1743901;81;21092;-41
2021/10/13 01:03:22;;;;;;;24.92;17.90;;;;;;;9.13;65.56;98932.60;1749973;81;21609;-40
2021/10/13 01:06:15;;;;;;;28.92;18.70;;;;;;;9.13;65.58;98931.81;1747302;81;20999;-41
2021/10/13 01:08:56;;;;;;;30.35;20.05;;;;;;;9.09;65.64;98926.35;1746294;80;21570;-40
2021/10/13 01:12:04;;;;;;;29.63;20.05;;;;;;;9.06;65.75;98924.34;1724989;80;20997;-41
2021/10/13 01:14:51;;;;;;;28.38;20.23;;;;;;;9.06;65.77;98923.00;1746117;80;21024;-41
2021/10/13 01:17:40;;;;;;;27.32;19.42;;;;;;;9.03;65.82;98919.67;1744480;80;21874;-41
2021/10/13 01:20:18;;;;;;;31.62;19.80;;;;;;;9.00;65.83;98919.05;1756850;80;20949;-40
2021/10/13 01:22:53;;;;;;;31.35;17.92;;;;;;;8.95;65.96;98919.34;1747746;80;21060;-41
2021/10/13 01:26:05;;;;;;;31.73;19.65;;;;;;;8.97;66.04;98916.27;1697359;82;21015;-40
2021/10/13 01:28:35;;;;;;;30.50;20.20;;;;;;;8.94;66.12;98920.48;1736695;81;20939;-40
2021/10/13 01:31:16;;;;;;;30.60;19.57;;;;;;;8.94;66.21;98922.40;1741692;80;21118;-40
2021/10/13 01:33:54;;;;;;;29.65;20.12;;;;;;;8.98;66.05;98932.13;1746148;80;20925;-40
2021/10/13 01:36:25;;;;;;;28.60;20.17;;;;;;;9.00;65.86;98933.92;1749725;80;21072;-41
2021/10/13 01:38:52;;;;;;;31.42;21.48;;;;;;;9.00;65.83;98950.14;1750325;80;21005;-40
2021/10/13 01:41:19;;;;;;;31.80;19.73;;;;;;;8.99;65.83;98939.67;1746692;80;21001;-40
2021/10/13 01:43:51;;;;;;;28.85;19.67;;;;;;;9.06;65.69;98933.81;1744890;80;21129;-40
2021/10/13 01:46:18;;;;;;;30.70;19.48;;;;;;;9.19;65.39;98935.01;1738783;80;21071;-40
2021/10/13 01:48:45;;;;;;;31.97;20.23;;;;;;;9.28;65.12;98927.44;1701262;80;20969;-40
2021/10/13 01:51:13;;;;;;;31.37;21.10;;;;;;;9.32;65.04;98925.56;1742771;80;20949;-41
2021/10/13 01:53:40;;;;;;;30.35;20.35;;;;;;;9.36;64.94;98925.05;1740971;80;21040;-41
2021/10/13 01:56:07;;;;;;;31.82;21.42;;;;;;;9.38;64.81;98926.83;1739936;80;21118;-40
2021/10/13 01:58:35;;;;;;;31.10;21.42;;;;;;;9.43;64.55;98926.53;1739020;80;21040;-41
2021/10/13 02:01:02;;;;;;;28.55;20.48;;;;;;;9.45;64.42;98929.64;1740202;80;20989;-40
2021/10/13 02:03:31;;;;;;;29.23;20.48;;;;;;;9.47;64.29;98927.36;1746519;82;20998;-41
2021/10/13 02:06:02;;;;;;;31.33;20.35;;;;;;;9.48;64.15;98928.94;1741115;80;21041;-41
2021/10/13 02:08:30;;;;;;;32.55;21.95;;;;;;;9.46;64.03;98935.27;1739090;80;20962;-41
2021/10/13 02:10:58;;;;;;;30.82;21.02;;;;;;;9.43;63.93;98934.08;1740089;80;21468;-41
2021/10/13 02:13:32;;;;;;;33.53;21.37;;;;;;;9.45;63.83;98940.46;1737233;80;21033;-40
2021/10/13 02:15:59;;;;;;;33.60;20.92;;;;;;;9.47;63.72;98946.30;1739843;80;21080;-40
2021/10/13 02:18:29;;;;;;;30.37;20.88;;;;;;;9.48;63.68;98948.66;1733300;80;21630;-40
2021/10/13 02:20:56;;;;;;;26.87;19.48;;;;;;;9.46;63.67;98955.56;1731027;80;21500;-41
2021/10/13 02:23:25;;;;;;;31.40;20.27;;;;;;;9.41;63.59;98951.23;1741863;80;21032;-41
2021/10/13 02:25:53;;;;;;;30.88;20.00;;;;;;;9.33;63.78;98950.91;1741636;82;20945;-40
2021/10/13 02:28:39;;;;;;;33.20;21.00;;;;;;;9.28;63.90;98951.78;1736084;82;20993;-41
2021/10/13 02:31:07;;;;;;;28.27;19.42;;;;;;;9.24;63.92;98957.70;1728752;82;21045;-41
2021/10/13 02:33:36;;;;;;;28.70;21.17;;;;;;;9.12;64.09;98951.31;1727512;82;21099;-41
2021/10/13 02:36:04;;;;;;;30.62;19.85;;;;;;;8.95;64.25;98948.30;1743909;82;21004;-41
2021/10/13 02:38:31;;;;;;;28.35;18.75;;;;;;;8.82;64.54;98954.41;1743699;82;20964;-40
2021/10/13 02:40:58;;;;;;;26.77;19.82;;;;;;;8.76;64.78;98945.05;1739797;82;21574;-40
2021/10/13 02:43:24;;;;;;;29.87;20.95;;;;;;;8.47;64.78;98901.81;1739986;82;21087;-40
2021/10/13 02:46:09;;;;;;;29.98;19.90;;;;;;;8.77;64.90;98949.30;1733345;82;21130;-40
2021/10/13 02:48:36;;;;;;;31.25;21.25;;;;;;;8.70;64.93;98944.55;1740176;82;21008;-40
2021/10/13 02:51:20;;;;;;;29.57;20.35;;;;;;;8.63;65.05;98947.67;1741098;82;21024;-40
2021/10/13 02:54:04;;;;;;;29.82;20.20;;;;;;;8.57;65.18;98950.44;1740885;80;21025;-40
2021/10/13 02:56:32;;;;;;;32.75;20.88;;;;;;;8.54;65.21;98956.56;1728107;80;21530;-40
2021/10/13 02:59:17;;;;;;;28.55;19.62;;;;;;;8.52;65.27;98956.15;1731656;80;21108;-40
2021/10/13 03:01:45;;;;;;;26.60;18.62;;;;;;;8.54;65.11;98955.99;1741025;80;20878;-40
2021/10/13 03:04:18;;;;;;;31.57;19.80;;;;;;;8.61;64.95;98960.77;1729179;80;20968;-40
2021/10/13 03:06:58;;;;;;;28.73;19.77;;;;;;;8.67;64.72;98962.03;1724333;82;21049;-41
2021/10/13 03:09:28;;;;;;;31.55;20.15;;;;;;;8.67;64.54;98968.22;1724825;80;21002;-41
2021/10/13 03:11:55;;;;;;;32.93;21.02;;;;;;;8.65;64.41;98966.45;1740430;80;21845;-41
2021/10/13 03:14:23;;;;;;;29.42;20.92;;;;;;;8.66;64.25;98968.59;1717370;81;21068;-40
2021/10/13 03:16:50;;;;;;;30.17;20.72;;;;;;;8.65;64.16;98964.31;1742356;80;21511;-40
2021/10/13 03:19:19;;;;;;;26.15;19.90;;;;;;;8.64;63.98;98969.50;1723578;82;21037;-40
2021/10/13 03:21:47;;;;;;;27.82;20.20;;;;;;;8.61;63.86;98974.28;1727069;81;21052;-40
2021/10/13 03:24:16;;;;;;;28.35;20.77;;;;;;;8.56;63.79;98967.80;1724396;82;21789;-40
2021/10/13 03:26:48;;;;;;;30.50;20.95;;;;;;;8.50;63.79;98966.52;1750728;82;21539;-41
2021/10/13 03:29:16;;;;;;;34.48;22.52;;;;;;;8.45;63.83;98965.45;1750656;82;21793;-41
2021/10/13 03:31:42;;;;;;;28.27;20.17;;;;;;;8.40;63.84;98971.13;1749893;80;21084;-40
2021/10/13 03:34:09;;;;;;;27.70;18.92;;;;;;;8.40;63.80;98967.08;1739939;80;21005;-40
2021/10/13 03:36:42;;;;;;;34.00;20.10;;;;;;;8.43;63.81;98967.14;1743060;80;21151;-41
2021/10/13 03:39:09;;;;;;;31.10;19.70;;;;;;;8.45;63.87;98969.50;1746943;80;21024;-41
2021/10/13 03:41:36;;;;;;;32.15;20.72;;;;;;;8.42;63.95;98975.05;1743341;80;20992;-40
2021/10/13 03:44:05;;;;;;;30.20;20.23;;;;;;;8.43;63.91;98977.16;1739377;80;20977;-40
2021/10/13 03:46:32;;;;;;;34.40;21.35;;;;;;;8.41;63.75;98969.99;1749676;80;21040;-41
2021/10/13 03:48:59;;;;;;;28.65;21.40;;;;;;;8.36;63.72;98971.63;1726159;83;21892;-41
2021/10/13 03:51:26;;;;;;;28.65;19.65;;;;;;;8.26;63.70;98976.41;1740424;80;21024;-40
2021/10/13 03:53:53;;;;;;;29.55;20.08;;;;;;;8.09;63.95;98973.30;1737204;81;21021;-40
2021/10/13 03:56:19;;;;;;;32.10;20.40;;;;;;;7.93;64.44;98973.92;1753566;81;21072;-40
2021/10/13 03:58:46;;;;;;;29.30;20.08;;;;;;;7.78;64.94;98980.34;1754252;81;21029;-41
2021/10/13 04:01:13;;;;;;;26.55;19.25;;;;;;;7.75;65.22;98982.38;1744586;81;21089;-41
2021/10/13 04:03:41;;;;;;;28.62;19.23;;;;;;;7.81;65.29;98976.14;1742548;81;20925;-41
2021/10/13 04:06:08;;;;;;;31.82;19.77;;;;;;;7.89;65.24;98981.91;1753719;81;21052;-40
2021/10/13 04:08:36;;;;;;;27.42;20.00;;;;;;;7.93;65.14;98982.02;1756146;81;20997;-40
2021/10/13 04:11:03;;;;;;;29.27;20.32;;;;;;;7.95;65.06;98987.27;1752433;81;21049;-40
2021/10/13 04:13:31;;;;;;;27.95;20.43;;;;;;;7.98;64.90;98991.98;1745287;81;20957;-40
2021/10/13 04:15:58;;;;;;;31.45;19.85;;;;;;;7.98;64.70;98986.59;1739471;81;21012;-40
2021/10/13 04:18:25;;;;;;;29.63;20.32;;;;;;;7.99;64.59;98988.13;1746710;81;21025;-41
2021/10/13 04:20:52;;;;;;;29.63;21.70;;;;;;;7.98;64.28;98983.10;1746033;80;21769;-41
2021/10/13 04:23:18;;;;;;;31.15;21.17;;;;;;;7.95;64.33;98983.22;1742449;81;21032;-41
2021/10/13 04:25:45;;;;;;;31.45;22.27;;;;;;;7.93;64.48;98989.55;1728501;81;21092;-40
2021/10/13 04:28:12;;;;;;;29.87;20.43;;;;;;;7.90;64.59;98983.48;1760428;80;20973;-41
2021/10/13 04:30:39;;;;;;;27.58;19.57;;;;;;;7.91;64.63;98986.41;1788047;80;21017;-41
2021/10/13 04:33:05;;;;;;;27.52;20.12;;;;;;;8.00;64.55;98991.05;1769744;80;20898;-40
2021/10/13 04:35:32;;;;;;;48.25;28.85;;;;;;;8.05;64.58;98990.00;1753295;80;21531;-40
2021/10/13 04:38:04;;;;;;;41.45;27.58;;;;;;;8.06;64.77;98993.70;1740991;80;21143;-40
2021/10/13 04:40:32;;;;;;;35.13;24.95;;;;;;;8.08;64.96;98994.71;1726619;83;20937;-41
2021/10/13 04:42:58;;;;;;;39.85;27.62;;;;;;;8.09;65.02;98992.98;1726514;82;20988;-40
2021/10/13 04:45:27;;;;;;;40.70;28.45;;;;;;;8.10;65.01;98994.56;1732863;80;21057;-40
2021/10/13 04:47:53;;;;;;;41.15;28.87;;;;;;;8.13;65.09;99003.30;1743080;82;20995;-41
2021/10/13 04:50:19;;;;;;;37.65;26.93;;;;;;;8.14;65.14;99000.82;1739270;81;21103;-41
2021/10/13 04:52:46;;;;;;;33.63;23.15;;;;;;;8.15;65.23;99006.44;1741745;82;20958;-40
2021/10/13 04:55:13;;;;;;;30.37;21.57;;;;;;;8.20;65.26;99008.09;1738173;81;21013;-40
2021/10/13 04:57:39;;;;;;;29.90;21.90;;;;;;;8.30;65.18;99012.97;1763826;81;20982;-40
2021/10/13 05:00:07;;;;;;;33.45;23.87;;;;;;;8.36;65.16;99006.73;1719648;82;21686;-40
2021/10/13 05:02:33;;;;;;;38.08;25.00;;;;;;;8.37;65.10;99005.04;1742756;82;21197;-40
2021/10/13 05:05:00;;;;;;;35.00;25.35;;;;;;;8.38;65.12;99005.23;1742897;81;20949;-41
2021/10/13 05:07:26;;;;;;;41.83;26.37;;;;;;;8.40;65.09;99006.23;1732850;82;20978;-40
2021/10/13 05:09:53;;;;;;;46.20;26.82;;;;;;;8.40;65.04;99006.23;1733086;80;20990;-40
2021/10/13 05:12:20;;;;;;;47.90;29.15;;;;;;;8.37;65.04;99001.55;1730816;81;21551;-41
2021/10/13 05:14:49;;;;;;;44.60;27.95;;;;;;;8.33;65.11;99004.75;1730158;82;21061;-40
2021/10/13 05:17:15;;;;;;;37.75;24.67;;;;;;;8.31;65.13;99005.09;1727363;82;21048;-40
2021/10/13 05:19:42;;;;;;;33.83;22.32;;;;;;;8.36;65.03;99012.14;1724954;80;21036;-41
2021/10/13 05:22:09;;;;;;;32.05;22.35;;;;;;;8.42;64.99;99012.08;1720890;80;20990;-40
2021/10/13 05:24:35;;;;;;;31.17;21.82;;;;;;;8.46;64.94;99000.78;1730436;82;20994;-40
2021/10/13 05:27:02;;;;;;;29.60;21.35;;;;;;;8.45;64.94;99004.61;1730366;82;21151;-41
2021/10/13 05:29:28;;;;;;;29.10;21.97;;;;;;;8.44;65.04;99002.48;1728576;82;21021;-39
2021/10/13 05:31:55;;;;;;;30.95;22.32;;;;;;;8.43;65.05;99007.66;1730192;80;21073;-41
2021/10/13 05:34:21;;;;;;;34.15;22.62;;;;;;;8.40;65.25;99019.18;1722206;82;20966;-40
2021/10/13 05:36:48;;;;;;;26.90;20.52;;;;;;;8.38;65.30;99016.60;1740053;82;21046;-40
2021/10/13 05:39:14;;;;;;;29.07;21.05;;;;;;;8.36;65.38;99017.54;1749411;80;21083;-40
2021/10/13 05:41:41;;;;;;;28.35;19.75;;;;;;;8.41;65.38;99021.31;1743129;82;21535;-40
2021/10/13 05:44:07;;;;;;;27.55;20.68;;;;;;;8.49;65.27;99025.16;1740331;82;21085;-40
2021/10/13 05:46:34;;;;;;;32.13;21.35;;;;;;;8.53;65.21;99021.97;1751261;80;21016;-40
2021/10/13 05:49:01;;;;;;;34.60;23.07;;;;;;;8.56;65.11;99039.41;1730036;80;21068;-40
2021/10/13 05:51:27;;;;;;;32.17;22.82;;;;;;;8.55;65.15;99044.02;1746327;81;21168;-40
2021/10/13 05:53:54;;;;;;;32.05;22.22;;;;;;;8.57;65.16;99039.59;1759789;80;20989;-41
2021/10/13 05:56:21;;;;;;;32.75;23.02;;;;;;;8.55;65.25;99039.97;1747406;81;20979;-40
2021/10/13 05:58:51;;;;;;;31.27;20.72;;;;;;;8.54;65.39;99043.02;1724856;82;21526;-40
2021/10/13 06:01:19;;;;;;;28.52;20.27;;;;;;;8.54;65.49;99047.06;1743979;81;20993;-40
2021/10/13 06:03:44;;;;;;;29.02;19.98;;;;;;;8.58;65.51;99047.92;1754479;80;21127;-40
2021/10/13 06:06:10;;;;;;;30.50;21.57;;;;;;;8.64;65.69;99058.11;1727471;81;21560;-41
2021/10/13 06:08:37;;;;;;;35.88;22.55;;;;;;;8.68;65.79;99052.77;1726649;83;21057;-40
2021/10/13 06:11:03;;;;;;;27.95;21.50;;;;;;;8.72;65.95;99050.36;1728423;80;21037;-40
2021/10/13 06:13:30;;;;;;;37.95;23.32;;;;;;;8.79;65.95;99058.41;1731751;81;21076;-41
2021/10/13 06:15:57;;;;;;;31.37;22.00;;;;;;;8.83;65.97;99055.99;1746263;81;21919;-40
2021/10/13 06:18:24;;;;;;;31.68;20.43;;;;;;;8.83;66.06;99066.02;1750247;82;20925;-40
2021/10/13 06:20:51;;;;;;;29.07;21.50;;;;;;;8.88;65.98;99061.13;1747402;80;20938;-40
2021/10/13 06:23:18;;;;;;;29.52;20.52;;;;;;;8.92;65.80;99057.91;1753312;80;21048;-40
2021/10/13 06:25:45;;;;;;;27.48;21.23;;;;;;;8.95;65.67;99051.81;1754051;81;21054;-40
2021/10/13 06:28:12;;;;;;;28.12;21.02;;;;;;;8.95;65.83;99058.58;1745525;80;21307;-40
2021/10/13 06:30:38;;;;;;;35.28;22.90;;;;;;;8.99;65.86;99064.05;1756453;81;21044;-40
2021/10/13 06:33:05;;;;;;;34.20;22.32;;;;;;;9.03;65.65;99068.38;1756616;80;21088;-40
2021/10/13 06:35:33;;;;;;;31.97;22.20;;;;;;;9.04;65.55;99065.11;1753293;81;21045;-41
2021/10/13 06:37:59;;;;;;;32.88;22.50;;;;;;;9.05;65.42;99069.39;1750603;82;21001;-40
2021/10/13 06:40:26;;;;;;;36.30;22.37;;;;;;;9.06;65.35;99078.48;1750439;82;21135;-40
2021/10/13 06:42:53;;;;;;;32.17;22.10;;;;;;;9.08;65.25;99074.08;1746697;81;21515;-41
2021/10/13 06:45:19;;;;;;;31.68;22.75;;;;;;;9.08;65.00;99078.92;1751473;81;20973;-40
2021/10/13 06:47:46;;;;;;;28.85;22.00;;;;;;;9.12;65.05;99078.41;1728521;81;21010;-40
2021/10/13 06:50:12;;;;;;;37.70;24.50;;;;;;;9.13;64.72;99071.09;1734272;82;21170;-41
2021/10/13 06:52:39;;;;;;;34.05;24.18;;;;;;;9.15;64.62;99084.45;1740973;81;22188;-40
2021/10/13 06:55:07;;;;;;;34.63;24.85;;;;;;;9.16;64.59;99075.20;1730414;81;21641;-40
2021/10/13 06:57:33;;;;;;;34.18;24.67;;;;;;;9.16;64.65;99078.48;1715139;82;21061;-40
2021/10/13 07:00:00;;;;;;;34.70;26.15;;;;;;;9.16;64.75;99084.67;1731354;80;21045;-42
2021/10/13 07:02:26;;;;;;;34.13;24.75;;;;;;;9.19;64.69;99087.81;1740767;82;21031;-40
2021/10/13 07:04:54;;;;;;;39.42;27.20;;;;;;;9.27;64.61;99082.75;1741043;82;21134;-40
2021/10/13 07:07:21;;;;;;;34.50;25.77;;;;;;;9.42;64.32;99081.31;1740338;81;21068;-40
2021/10/13 07:09:48;;;;;;;37.58;27.25;;;;;;;9.52;64.04;99081.30;1737606;81;21264;-40
2021/10/13 07:12:14;;;;;;;37.17;25.52;;;;;;;9.58;63.85;99082.58;1742562;82;21515;-41
2021/10/13 07:14:42;;;;;;;36.98;27.25;;;;;;;9.60;63.63;99080.28;1742263;81;21026;-41
2021/10/13 07:17:11;;;;;;;40.73;27.87;;;;;;;9.63;63.63;99071.47;1742965;82;21153;-40
2021/10/13 07:19:39;;;;;;;38.83;27.22;;;;;;;9.67;63.34;99073.66;1743161;82;21487;-40
2021/10/13 07:22:05;;;;;;;35.68;26.40;;;;;;;9.69;63.35;99070.00;1743058;82;20950;-40
2021/10/13 07:24:32;;;;;;;44.83;29.87;;;;;;;9.72;63.49;99065.23;1743173;82;21030;-41
2021/10/13 07:26:58;;;;;;;42.05;26.77;;;;;;;9.74;63.27;99063.51;1743233;81;21545;-40
2021/10/13 07:29:27;;;;;;;37.35;26.35;;;;;;;9.79;63.26;99062.64;1743111;81;21505;-41
2021/10/13 07:31:54;;;;;;;38.85;26.82;;;;;;;9.88;62.89;99065.09;1743011;82;21362;-41
2021/10/13 07:34:22;;;;;;;39.45;27.30;;;;;;;9.94;63.10;99071.22;1743003;82;21037;-40
2021/10/13 07:36:49;;;;;;;41.63;28.55;;;;;;;10.05;62.82;99071.39;1743211;82;20954;-40
2021/10/13 07:39:15;;;;;;;41.15;26.55;;;;;;;10.17;62.49;99073.92;1743300;81;21041;-41
2021/10/13 07:41:44;;;;;;;37.67;27.22;;;;;;;10.25;61.42;99070.77;1743223;82;21876;-41
2021/10/13 07:44:11;;;;;;;40.35;26.25;;;;;;;10.27;61.05;99071.95;1742876;82;20985;-40
2021/10/13 07:46:37;;;;;;;41.40;28.27;;;;;;;10.30;61.12;99075.31;1743290;81;20934;-41
2021/10/13 07:49:04;;;;;;;39.10;27.98;;;;;;;10.33;61.25;99073.22;1743315;82;21005;-42
2021/10/13 07:51:31;;;;;;;41.83;28.87;;;;;;;10.37;60.54;99074.62;1743364;81;21476;-40
2021/10/13 07:53:59;;;;;;;54.98;32.67;;;;;;;10.35;60.46;99072.86;1707675;83;21538;-40
2021/10/13 07:56:25;;;;;;;59.10;39.27;;;;;;;10.31;60.51;99072.78;1743322;82;20887;-40
2021/10/13 07:58:53;;;;;;;48.45;32.28;;;;;;;10.25;60.45;99070.20;1707480;84;20953;-42
2021/10/13 08:01:19;;;;;;;38.05;25.70;;;;;;;10.24;60.93;99076.76;1743318;81;22129;-41
2021/10/13 08:03:46;;;;;;;36.68;26.27;;;;;;;10.24;61.02;99079.47;1743462;82;21013;-42
2021/10/13 08:06:13;;;;;;;44.40;31.48;;;;;;;10.30;61.09;99089.43;1707551;84;21142;-41
2021/10/13 08:08:40;;;;;;;47.90;31.10;;;;;;;10.39;61.05;99085.89;1743538;82;21028;-40
2021/10/13 08:11:08;;;;;;;43.83;29.63;;;;;;;10.49;60.53;99083.91;1743174;81;21246;-41
2021/10/13 08:13:36;;;;;;;41.80;28.35;;;;;;;10.55;60.35;99084.38;1743309;81;20978;-40
2021/10/13 08:16:04;;;;;;;40.45;28.00;;;;;;;10.55;60.37;99085.17;1707572;84;21526;-40
2021/10/13 08:18:32;;;;;;;36.63;26.87;;;;;;;10.52;60.63;99085.09;1743265;82;21069;-41
2021/10/13 08:20:59;;;;;;;40.95;29.82;;;;;;;10.48;60.59;99089.69;1707247;83;21507;-40
2021/10/13 08:23:27;;;;;;;41.55;30.85;;;;;;;10.43;60.58;99085.36;1743490;82;21059;-41
2021/10/13 08:25:55;;;;;;;48.38;33.90;;;;;;;10.36;60.97;99090.69;1707742;84;21082;-41
2021/10/13 08:28:22;;;;;;;50.98;36.10;;;;;;;10.22;61.20;99086.37;1743147;82;21009;-41
2021/10/13 08:30:49;;;;;;;48.05;32.28;;;;;;;10.01;61.68;99088.16;1743090;82;21098;-41
2021/10/13 08:33:15;;;;;;;48.52;33.13;;;;;;;9.82;62.17;99090.36;1743104;82;20986;-41
2021/10/13 08:35:42;;;;;;;48.20;34.58;;;;;;;9.75;62.67;99085.38;1743079;82;21005;-41
2021/10/13 08:38:08;;;;;;;51.73;34.63;;;;;;;9.63;62.76;99076.09;1707379;83;21032;-41
2021/10/13 08:40:37;;;;;;;55.38;35.38;;;;;;;9.61;62.99;99083.20;1743288;82;20998;-42
2021/10/13 08:43:06;;;;;;;55.25;34.70;;;;;;;9.58;62.98;99085.29;1743327;82;21150;-41
2021/10/13 08:45:34;;;;;;;53.15;35.03;;;;;;;9.52;62.95;99086.15;1744680;81;21001;-40
2021/10/13 08:48:01;;;;;;;55.10;35.28;;;;;;;9.42;63.09;99079.18;1756738;81;20996;-41
2021/10/13 08:50:29;;;;;;;46.90;32.70;;;;;;;9.28;63.41;99076.20;1715310;81;21037;-42
2021/10/13 08:53:14;;;;;;;49.65;34.60;;;;;;;9.27;63.97;99077.34;1720662;83;21084;-41
2021/10/13 08:55:42;;;;;;;46.23;33.88;;;;;;;9.31;63.78;99072.77;1720545;83;21101;-41
2021/10/13 08:58:21;;;;;;;51.33;34.50;;;;;;;9.41;63.85;99071.63;1702460;84;21048;-40
2021/10/13 09:00:51;;;;;;;49.00;34.00;;;;;;;9.53;63.36;99072.05;1720894;83;21083;-40
2021/10/13 09:03:32;;;;;;;52.33;35.15;;;;;;;9.56;63.50;99079.44;1691611;83;21071;-40
2021/10/13 09:06:01;;;;;;;;;;;;;;;9.64;63.32;99078.98;1723134;83;21000;-41
2021/10/13 09:08:27;;;;;;;55.50;36.10;;;;;;;9.69;63.01;99082.18;1700869;84;22181;-41
2021/10/13 09:10:55;;;;;;;55.45;36.50;;;;;;;9.69;63.19;99090.87;1702749;84;21044;-41
2021/10/13 09:13:22;;;;;;;53.23;36.68;;;;;;;9.80;62.88;99093.98;1702503;84;20951;-40
2021/10/13 09:15:52;;;;;;;56.10;37.00;;;;;;;9.78;62.63;99096.27;1702591;84;20985;-42
2021/10/13 09:18:23;;;;;;;53.23;35.13;;;;;;;9.73;62.72;99103.33;1702576;84;21041;-41
2021/10/13 09:20:52;;;;;;;51.53;33.70;;;;;;;9.77;62.68;99102.84;1702694;84;21123;-41
2021/10/13 09:23:26;;;;;;;56.28;35.98;;;;;;;9.86;62.42;99099.33;1702286;84;21097;-41
2021/10/13 09:26:08;;;;;;;52.33;36.30;;;;;;;9.89;61.95;99097.23;1701974;84;20985;-40
2021/10/13 09:28:36;;;;;;;50.03;35.48;;;;;;;9.85;62.25;99096.97;1702416;84;21049;-41
2021/10/13 09:31:20;;;;;;;53.40;36.33;;;;;;;9.90;62.37;99100.16;1702377;84;21042;-41
2021/10/13 09:33:59;;;;;;;50.03;34.95;;;;;;;9.99;62.42;99102.63;1714502;83;21136;-40
2021/10/13 09:36:43;;;;;;;56.13;39.10;;;;;;;10.10;61.91;99104.95;1702436;84;20939;-41
2021/10/13 09:39:16;;;;;;;56.63;38.25;;;;;;;10.16;61.70;99103.53;1702302;84;20926;-40
2021/10/13 09:42:08;;;;;;;52.58;36.58;;;;;;;10.21;61.70;99101.09;1720329;83;21036;-41
2021/10/13 09:44:43;;;;;;;47.33;33.65;;;;;;;10.25;61.86;99104.64;1702371;84;21117;-42
2021/10/13 09:47:12;;;;;;;46.95;32.45;;;;;;;10.37;61.64;99108.49;1700319;84;22097;-42
2021/10/13 09:49:45;;;;;;;48.10;33.80;;;;;;;10.50;60.99;99106.38;1699664;84;21113;-41
2021/10/13 09:52:16;;;;;;;46.37;32.78;;;;;;;10.58;60.79;99107.47;1707048;84;21005;-41
2021/10/13 09:54:47;;;;;;;48.90;32.42;;;;;;;10.59;60.36;99104.97;1707355;84;21602;-40
2021/10/13 09:57:28;;;;;;;45.95;32.65;;;;;;;10.56;60.48;99111.67;1707216;84;21067;-42
2021/10/13 10:00:18;;;;;;;45.25;32.53;;;;;;;10.53;60.41;99111.84;1707205;84;22103;-41
2021/10/13 10:02:56;;;;;;;47.10;33.10;;;;;;;10.54;60.49;99121.55;1701556;84;21009;-41
2021/10/13 10:05:33;;;;;;;46.00;32.85;;;;;;;10.49;60.32;99112.37;1707410;84;21021;-41
2021/10/13 10:08:08;;;;;;;48.60;33.33;;;;;;;10.41;60.52;99120.16;1707384;84;21033;-42
2021/10/13 10:10:37;;;;;;;51.35;34.50;;;;;;;10.40;60.79;99116.70;1707186;84;21500;-41
2021/10/13 10:13:12;;;;;;;48.17;34.33;;;;;;;10.41;61.00;99114.17;1707227;83;21133;-42
2021/10/13 10:15:42;;;;;;;45.98;31.97;;;;;;;10.51;60.94;99122.83;1705896;84;20985;-41
2021/10/13 10:18:32;;;;;;;48.38;34.05;;;;;;;10.58;60.70;99122.95;1707281;84;20907;-42
2021/10/13 10:21:25;;;;;;;46.15;31.75;;;;;;;10.65;60.37;99122.47;1694675;84;21028;-41
2021/10/13 10:24:00;;;;;;;48.08;31.93;;;;;;;10.68;60.21;99126.39;1707281;84;21543;-42
2021/10/13 10:26:31;;;;;;;53.23;32.75;;;;;;;10.72;60.29;99132.07;1703057;84;21150;-41
2021/10/13 10:29:05;;;;;;;47.95;34.18;;;;;;;10.78;60.09;99135.25;1707129;84;21029;-41
2021/10/13 10:31:34;;;;;;;53.20;35.10;;;;;;;10.81;59.81;99128.52;1706340;84;22117;-41
2021/10/13 10:34:09;;;;;;;47.65;33.70;;;;;;;10.81;59.77;99128.52;1707354;84;21092;-40
2021/10/13 10:36:44;;;;;;;48.17;33.10;;;;;;;10.80;59.68;99132.37;1707621;84;21066;-40
2021/10/13 10:39:17;;;;;;;50.12;34.13;;;;;;;10.71;59.71;99129.14;1707362;84;21872;-41
2021/10/13 10:41:49;;;;;;;45.03;32.17;;;;;;;10.67;59.71;99122.89;1707356;84;21503;-42
2021/10/13 10:44:35;;;;;;;53.78;36.55;;;;;;;10.69;59.96;99127.39;1707373;84;20994;-41
2021/10/13 10:47:09;;;;;;;46.63;32.33;;;;;;;10.69;59.89;99129.31;1707434;84;20919;-41
2021/10/13 10:49:53;;;;;;;60.05;35.43;;;;;;;10.66;59.77;99124.03;1706979;84;21015;-41
2021/10/13 10:52:23;;;;;;;54.23;34.13;;;;;;;10.61;59.79;99125.70;1707342;84;21167;-41
2021/10/13 10:55:07;;;;;;;49.67;31.50;;;;;;;10.60;60.08;99122.77;1707313;84;21029;-40
2021/10/13 10:57:46;;;;;;;47.03;30.08;;;;;;;10.68;60.10;99125.03;1680862;84;21079;-41
2021/10/13 11:00:27;;;;;;;43.90;30.17;;;;;;;10.75;59.84;99124.55;1707306;84;21046;-41
2021/10/13 11:03:21;;;;;;;48.50;31.55;;;;;;;10.78;59.72;99123.84;1707159;84;21578;-41
2021/10/13 11:05:48;;;;;;;49.48;31.52;;;;;;;10.75;59.44;99123.20;1704768;84;21558;-40
2021/10/13 11:08:16;;;;;;;43.00;30.72;;;;;;;10.70;59.76;99124.08;1707244;84;21054;-41
2021/10/13 11:10:42;;;;;;;51.55;33.70;;;;;;;10.71;59.98;99123.72;1707302;84;20981;-41
2021/10/13 11:13:09;;;;;;;46.63;32.48;;;;;;;10.77;60.04;99122.27;1707426;84;20974;-42
2021/10/13 11:15:39;;;;;;;57.33;32.38;;;;;;;10.81;59.63;99119.02;1707287;84;21014;-41
2021/10/13 11:18:15;;;;;;;55.52;31.45;;;;;;;10.82;59.46;99116.53;1707624;84;21153;-41
2021/10/13 11:20:43;;;;;;;46.35;32.20;;;;;;;10.84;59.35;99116.17;1707466;84;21295;-41
2021/10/13 11:23:11;;;;;;;44.55;31.80;;;;;;;10.82;58.77;99115.17;1707414;84;21077;-41
2021/10/13 11:25:39;;;;;;;49.63;33.35;;;;;;;10.83;58.97;99112.67;1707134;84;21029;-41
2021/10/13 11:28:12;;;;;;;45.17;29.82;;;;;;;10.86;59.40;99115.21;1707623;84;21078;-41
2021/10/13 11:30:47;;;;;;;46.23;31.27;;;;;;;10.87;59.53;99120.28;1707516;84;21143;-41
2021/10/13 11:33:18;;;;;;;50.78;33.65;;;;;;;10.88;59.23;99112.93;1706746;84;20938;-41
2021/10/13 11:35:45;;;;;;;;;;;;;;;10.87;59.01;99117.56;1709526;84;21010;-41
2021/10/13 11:38:17;;;;;;;48.20;30.80;;;;;;;10.83;59.22;99122.16;1707195;84;20173;-41